Time;durP1;ratioP1;P1;durP2;ratioP2;P2;SDS_P1;SDS_P2;PMS_P1;PMS_P2;Temp;Humidity;BMP_temperature;BMP_pressure;BME280_temperature;BME280_humidity;BME280_pressure;Samples;Min_cycle;Max_cycle;Signal;HPM_P1;HPM_P2
2021/08/31 00:00:18;;;;;;;3.13;2.20;;;12.20;99.90;;;12.60;100.00;95226.00;2425410;55;26735;-51
2021/08/31 00:06:00;;;;;;;1.90;1.60;;;12.20;99.90;;;12.72;100.00;95209.00;2369365;55;33922;-53
2021/08/31 00:08:47;;;;;;;3.33;1.80;;;12.20;99.90;;;12.61;100.00;95226.00;2339263;57;27273;-52
2021/08/31 00:11:33;;;;;;;2.57;2.30;;;12.20;99.90;;;12.60;100.00;95236.00;2135919;58;26736;-53
2021/08/31 00:14:20;;;;;;;2.03;1.67;;;12.20;99.90;;;12.58;100.00;95234.00;2352621;56;27413;-52
2021/08/31 00:17:08;;;;;;;3.23;2.57;;;12.20;99.90;;;12.66;100.00;95234.00;2165722;56;26876;-52
2021/08/31 00:19:54;;;;;;;1.83;1.70;;;12.20;99.90;;;12.57;100.00;95237.00;2158561;56;26727;-52
2021/08/31 00:22:40;;;;;;;2.67;2.00;;;12.20;99.90;;;12.68;100.00;95236.00;2391948;55;27241;-52
2021/08/31 00:25:27;;;;;;;4.87;2.70;;;12.20;99.90;;;12.68;100.00;95239.00;2200606;56;26788;-52
2021/08/31 00:28:13;;;;;;;4.87;2.30;;;12.20;99.90;;;12.62;100.00;95235.00;2427060;55;26719;-52
2021/08/31 00:30:59;;;;;;;2.03;1.83;;;12.20;99.90;;;12.62;100.00;95232.00;2203297;56;27045;-53
2021/08/31 00:33:46;;;;;;;1.97;1.77;;;12.20;99.90;;;12.69;100.00;95239.00;2422610;55;26846;-52
2021/08/31 00:36:32;;;;;;;2.57;1.80;;;12.30;99.90;;;12.73;100.00;95240.00;2203471;56;26587;-53
2021/08/31 00:39:19;;;;;;;3.13;2.00;;;12.30;99.90;;;12.71;100.00;95239.00;2420283;55;27109;-52
2021/08/31 00:42:06;;;;;;;3.53;2.33;;;12.30;99.90;;;12.71;100.00;95237.00;2191977;56;27104;-51
2021/08/31 00:47:49;;;;;;;2.57;2.30;;;12.20;99.90;;;12.66;100.00;95220.00;2379231;56;34056;-53
2021/08/31 00:50:36;;;;;;;4.07;2.90;;;12.30;99.90;;;12.69;100.00;95243.00;2405006;56;26694;-52
2021/08/31 00:56:21;;;;;;;3.77;3.00;;;12.20;99.90;;;12.71;100.00;95226.00;2440423;54;33678;-53
2021/08/31 00:59:07;;;;;;;4.43;2.85;;;12.20;99.90;;;12.64;100.00;95246.00;2434104;55;27167;-52
2021/08/31 01:01:54;;;;;;;4.60;2.90;;;12.30;99.90;;;12.63;100.00;95250.00;2220438;55;26858;-53
2021/08/31 01:04:42;;;;;;;3.27;2.40;;;12.30;99.90;;;12.66;100.00;95255.00;2227454;56;26582;-53
2021/08/31 01:07:29;;;;;;;2.73;2.40;;;12.30;99.90;;;12.71;100.00;95254.00;2256081;54;27134;-53
2021/08/31 01:10:16;;;;;;;3.40;2.90;;;12.30;99.90;;;12.70;100.00;95255.00;2262335;54;27289;-53
2021/08/31 01:13:02;;;;;;;2.87;2.47;;;12.30;99.90;;;12.61;100.00;95256.00;2261707;54;26951;-53
2021/08/31 01:15:49;;;;;;;2.37;2.17;;;12.20;99.90;;;12.63;100.00;95260.00;2262884;54;26595;-52
2021/08/31 01:18:36;;;;;;;2.50;2.30;;;12.30;99.90;;;12.67;100.00;95261.00;2262267;54;27469;-53
2021/08/31 01:21:22;;;;;;;2.50;2.27;;;12.20;99.90;;;12.62;100.00;95269.00;2262104;54;26651;-54
2021/08/31 01:27:05;;;;;;;2.30;2.10;;;12.20;99.90;;;12.79;100.00;95244.00;2443163;54;33981;-53
2021/08/31 01:29:51;;;;;;;3.25;2.08;;;12.30;99.90;;;12.78;100.00;95266.00;2192975;56;26162;-53
2021/08/31 01:32:38;;;;;;;2.60;2.30;;;12.30;99.90;;;12.71;100.00;95266.00;2410032;55;26740;-53
2021/08/31 01:35:24;;;;;;;2.30;2.10;;;12.30;99.90;;;12.71;100.00;95268.00;2211852;57;26764;-53
2021/08/31 01:38:11;;;;;;;3.55;2.50;;;12.30;99.90;;;12.71;100.00;95268.00;2213121;56;27238;-53
2021/08/31 01:40:57;;;;;;;3.03;2.20;;;12.30;99.90;;;12.73;100.00;95266.00;2212144;56;26880;-53
2021/08/31 01:43:44;;;;;;;3.55;2.30;;;12.30;99.90;;;12.74;100.00;95271.00;2212592;56;26578;-53
2021/08/31 01:49:28;;;;;;;2.83;2.53;;;12.30;99.90;;;12.86;100.00;95243.00;2451041;54;33677;-53
2021/08/31 01:52:15;;;;;;;2.60;2.40;;;12.30;99.90;;;12.78;100.00;95272.00;2218747;55;26782;-53
2021/08/31 01:55:01;;;;;;;2.78;2.50;;;12.30;99.90;;;12.80;100.00;95272.00;2206764;56;26663;-52
2021/08/31 01:57:47;;;;;;;3.00;2.70;;;12.30;99.90;;;12.82;100.00;95280.00;2431661;55;26709;-52
2021/08/31 02:00:34;;;;;;;2.97;2.50;;;12.30;99.90;;;12.78;100.00;95274.00;2210810;56;26903;-52
2021/08/31 02:06:16;;;;;;;2.50;2.30;;;12.30;99.90;;;12.92;100.00;95247.00;2342497;56;34026;-53
2021/08/31 02:12:00;;;;;;;3.30;2.67;;;12.40;99.90;;;12.97;100.00;95246.00;2381491;55;34197;-53
2021/08/31 02:14:47;;;;;;;3.28;2.67;;;12.40;99.90;;;12.83;100.00;95263.00;2170135;56;26670;-52
2021/08/31 02:17:33;;;;;;;4.30;2.97;;;12.40;99.90;;;12.88;100.00;95264.00;2400085;56;26667;-53
2021/08/31 02:20:19;;;;;;;3.07;2.77;;;12.40;99.90;;;12.88;100.00;95272.00;2191925;57;26153;-53
2021/08/31 02:23:06;;;;;;;3.40;2.40;;;12.40;99.90;;;12.79;100.00;95265.00;2401195;56;26738;-53
2021/08/31 02:25:53;;;;;;;2.60;2.27;;;12.40;99.90;;;12.83;100.00;95263.00;2183387;56;26852;-53
2021/08/31 02:28:39;;;;;;;2.77;2.50;;;12.30;99.90;;;12.78;100.00;95268.00;2184461;56;26907;-54
2021/08/31 02:31:26;;;;;;;3.30;2.30;;;12.30;99.90;;;12.82;100.00;95265.00;2184531;56;27252;-53
2021/08/31 02:34:12;;;;;;;2.83;2.42;;;12.30;99.90;;;12.77;100.00;95270.00;2401566;56;26603;-54
2021/08/31 02:36:59;;;;;;;2.45;2.22;;;12.30;99.90;;;12.79;100.00;95273.00;2185045;56;26842;-53
2021/08/31 02:39:45;;;;;;;4.60;2.40;;;12.30;99.90;;;12.79;100.00;95273.00;2183994;56;27269;-54
2021/08/31 02:42:32;;;;;;;2.90;2.47;;;12.40;99.90;;;12.83;100.00;95272.00;2185053;56;27997;-53
2021/08/31 02:45:18;;;;;;;5.10;2.70;;;12.30;99.90;;;12.79;100.00;95273.00;2402354;56;26802;-54
2021/08/31 02:48:06;;;;;;;3.73;2.60;;;12.40;99.90;;;12.84;100.00;95273.00;2408693;55;26644;-53
2021/08/31 02:50:59;;;;;;;3.17;2.78;;;12.30;99.90;;;12.80;100.00;95277.00;2210272;56;26894;-55
2021/08/31 02:53:46;;;;;;;3.22;2.72;;;12.30;99.90;;;12.76;100.00;95276.00;2209057;55;26772;-58
2021/08/31 02:59:30;;;;;;;4.37;3.00;;;12.30;99.90;;;12.88;100.00;95257.00;2453413;55;34007;-54
2021/08/31 03:05:14;;;;;;;3.85;2.75;;;12.40;99.90;;;12.92;100.00;95255.00;2421001;55;33927;-56
2021/08/31 03:08:01;;;;;;;2.87;2.60;;;12.40;99.90;;;12.88;100.00;95283.00;2166278;56;26699;-54
2021/08/31 03:16:43;;;;;;;5.30;3.27;;;12.40;99.90;;;12.98;100.00;95261.00;2446311;54;34105;-55
2021/08/31 03:22:27;;;;;;;3.58;3.28;;;12.40;99.90;;;12.98;100.00;95269.00;2368029;56;34013;-55
2021/08/31 03:25:13;;;;;;;3.60;3.27;;;12.40;99.90;;;12.86;100.00;95282.00;2159866;57;26749;-55
2021/08/31 03:27:59;;;;;;;4.25;3.65;;;12.40;99.90;;;12.86;100.00;95292.00;2158898;57;27220;-56
2021/08/31 03:30:46;;;;;;;8.45;3.90;;;12.40;99.90;;;12.88;100.00;95286.00;2370992;56;26744;-55
2021/08/31 03:33:32;;;;;;;3.93;3.50;;;12.40;99.90;;;12.87;100.00;95289.00;2158877;57;26675;-55
2021/08/31 03:36:18;;;;;;;5.72;4.10;;;12.40;99.90;;;12.85;100.00;95293.00;2368955;56;27561;-55
2021/08/31 03:39:05;;;;;;;4.63;3.97;;;12.40;99.90;;;12.89;100.00;95292.00;2153718;57;27259;-54
2021/08/31 03:41:52;;;;;;;4.00;3.50;;;12.40;99.90;;;12.99;100.00;95302.00;2367656;56;27373;-55
2021/08/31 03:47:35;;;;;;;4.32;3.90;;;12.40;99.90;;;12.89;100.00;95281.00;2405207;54;34658;-55
2021/08/31 03:50:22;;;;;;;4.13;3.67;;;12.30;99.90;;;12.78;100.00;95303.00;2152089;56;26740;-55
2021/08/31 03:53:08;;;;;;;4.97;3.45;;;12.30;99.90;;;12.71;100.00;95297.00;2374137;56;26848;-55
2021/08/31 03:55:54;;;;;;;4.53;4.10;;;12.30;99.90;;;12.66;100.00;95302.00;2161476;56;26821;-55
2021/08/31 03:58:41;;;;;;;4.33;3.63;;;12.30;99.90;;;12.70;100.00;95304.00;2373809;56;26598;-55
2021/08/31 04:01:27;;;;;;;5.30;3.83;;;12.20;99.90;;;12.70;100.00;95308.00;2167329;57;27045;-55
2021/08/31 04:04:14;;;;;;;4.30;3.28;;;12.20;99.90;;;12.69;100.00;95315.00;2162051;57;26894;-56
2021/08/31 04:09:56;;;;;;;4.82;3.55;;;12.20;99.90;;;12.77;100.00;95298.00;2407606;55;33224;-55
2021/08/31 04:12:42;;;;;;;6.27;3.30;;;12.20;99.90;;;12.68;100.00;95324.00;2195744;56;26137;-55
2021/08/31 04:15:28;;;;;;;3.70;3.12;;;12.20;99.90;;;12.66;100.00;95325.00;2201235;55;26697;-54
2021/08/31 04:18:15;;;;;;;4.07;3.40;;;12.20;99.90;;;12.66;100.00;95329.00;2427142;55;26819;-56
2021/08/31 04:21:01;;;;;;;3.50;3.20;;;12.20;99.90;;;12.70;100.00;95333.00;2185836;56;27156;-56
2021/08/31 04:23:47;;;;;;;4.93;3.10;;;12.20;99.90;;;12.70;100.00;95334.00;2407609;55;26989;-55
2021/08/31 04:26:34;;;;;;;3.75;3.30;;;12.20;99.90;;;12.67;100.00;95345.00;2189479;56;26179;-54
2021/08/31 04:29:20;;;;;;;4.20;3.53;;;12.20;99.90;;;12.65;100.00;95337.00;2187997;56;26807;-55
2021/08/31 04:35:05;;;;;;;5.93;4.12;;;12.20;99.90;;;12.78;100.00;95318.00;2410847;55;33802;-54
2021/08/31 04:37:52;;;;;;;4.22;3.83;;;12.20;99.90;;;12.70;100.00;95340.00;2202359;54;26133;-55
2021/08/31 04:43:34;;;;;;;4.17;3.63;;;12.30;99.90;;;12.90;100.00;95330.00;2385964;55;34546;-55
2021/08/31 04:49:17;;;;;;;4.20;3.80;;;12.30;99.90;;;12.87;100.00;95333.00;2436504;55;33464;-55
2021/08/31 04:55:03;;;;;;;4.90;4.40;;;12.30;99.90;;;12.94;100.00;95337.00;2437374;54;33674;-55
2021/08/31 04:57:49;;;;;;;4.60;3.45;;;12.30;99.90;;;12.84;100.00;95353.00;2184570;56;26783;-55
2021/08/31 05:03:32;;;;;;;4.45;3.60;;;12.30;99.90;;;12.96;100.00;95340.00;2409397;55;34114;-55
2021/08/31 05:09:16;;;;;;;4.85;3.60;;;12.40;99.90;;;13.00;100.00;95347.00;2457671;53;33814;-55
2021/08/31 05:15:00;;;;;;;4.20;3.80;;;12.50;99.90;;;13.08;100.00;95343.00;2386221;55;33267;-55
2021/08/31 05:17:46;;;;;;;5.90;4.80;;;12.50;99.90;;;13.01;100.00;95366.00;2140749;57;26781;-55
2021/08/31 05:20:33;;;;;;;4.93;4.18;;;12.50;99.90;;;13.06;100.00;95361.00;2364582;56;26973;-55
2021/08/31 05:26:16;;;;;;;5.80;5.10;;;12.60;99.90;;;13.22;100.00;95358.00;2405858;55;34354;-55
2021/08/31 05:29:02;;;;;;;6.65;5.00;;;12.60;99.90;;;13.11;100.00;95372.00;2145935;56;26641;-54
2021/08/31 05:31:49;;;;;;;5.82;5.22;;;12.50;99.90;;;13.09;100.00;95374.00;2343541;57;26950;-55
2021/08/31 05:34:35;;;;;;;5.68;4.85;;;12.60;99.90;;;13.09;100.00;95376.00;2146342;57;26826;-55
2021/08/31 05:37:22;;;;;;;5.30;4.80;;;12.60;99.90;;;13.11;100.00;95374.00;2350305;56;26761;-55
2021/08/31 05:40:10;;;;;;;5.90;5.03;;;12.60;99.90;;;13.12;100.00;95379.00;2155592;56;27226;-55
2021/08/31 05:45:54;;;;;;;5.65;5.15;;;12.70;99.90;;;13.37;100.00;95362.00;2397882;55;34239;-56
2021/08/31 05:51:38;;;;;;;5.57;4.97;;;12.80;99.90;;;13.46;100.00;95363.00;2439095;54;33561;-55
2021/08/31 05:54:26;;;;;;;5.22;4.72;;;12.90;99.90;;;13.50;100.00;95385.00;2208043;56;27436;-55
2021/08/31 05:57:12;;;;;;;4.87;4.37;;;12.90;99.90;;;13.45;100.00;95377.00;2422095;55;26693;-55
2021/08/31 05:59:59;;;;;;;4.60;4.17;;;12.90;99.90;;;13.43;100.00;95379.00;2437443;54;26765;-55
2021/08/31 06:02:45;;;;;;;5.40;4.78;;;12.90;99.90;;;13.61;100.00;95374.00;2228418;56;26774;-56
2021/08/31 06:05:31;;;;;;;4.97;4.47;;;13.10;99.90;;;13.78;100.00;95381.00;2451890;55;26675;-55
2021/08/31 06:08:18;;;;;;;4.47;4.07;;;13.20;99.90;;;13.78;100.00;95367.00;2208125;56;27201;-54
2021/08/31 06:14:01;;;;;;;4.30;3.90;;;13.20;99.90;;;13.87;100.00;95358.00;2429040;54;33751;-55
2021/08/31 06:16:47;;;;;;;4.72;3.92;;;13.40;99.90;;;13.89;100.00;95381.00;2200454;55;26769;-54
2021/08/31 06:19:35;;;;;;;4.43;4.03;;;13.40;99.90;;;14.00;100.00;95379.00;2210804;57;27337;-54
2021/08/31 06:22:21;;;;;;;3.60;3.30;;;13.60;99.90;;;14.25;100.00;95383.00;2430706;55;26588;-55
2021/08/31 06:25:09;;;;;;;4.00;3.47;;;13.60;99.90;;;14.09;100.00;95378.00;2211274;56;26612;-55
2021/08/31 06:30:52;;;;;;;3.90;3.50;;;13.70;99.90;;;14.53;100.00;95363.00;2447528;54;33716;-55
2021/08/31 06:33:39;;;;;;;4.87;3.97;;;13.70;99.90;;;14.43;100.00;95376.00;2213230;56;26715;-55
2021/08/31 06:36:26;;;;;;;4.30;3.33;;;13.80;99.90;;;14.31;100.00;95376.00;2435892;55;26909;-55
2021/08/31 06:39:12;;;;;;;3.95;3.55;;;13.70;99.90;;;14.25;100.00;95381.00;2213744;56;27178;-55
2021/08/31 06:41:58;;;;;;;3.90;3.50;;;13.80;99.90;;;14.25;100.00;95378.00;2212725;56;26726;-55
2021/08/31 06:44:45;;;;;;;3.90;3.50;;;13.60;99.90;;;14.13;100.00;95373.00;2435045;55;26144;-55
2021/08/31 06:47:31;;;;;;;4.10;3.70;;;13.80;99.90;;;14.32;100.00;95378.00;2212447;56;26124;-55
2021/08/31 06:53:14;;;;;;;4.00;3.53;;;13.80;99.90;;;14.24;100.00;95370.00;2415239;55;33992;-55
2021/08/31 06:56:00;;;;;;;5.25;3.70;;;13.70;99.90;;;14.17;100.00;95383.00;2174390;56;26646;-54
2021/08/31 06:58:46;;;;;;;4.45;3.90;;;13.60;99.90;;;13.99;100.00;95389.00;2174263;56;26815;-55
2021/08/31 07:01:34;;;;;;;4.15;3.75;;;13.40;99.90;;;13.82;100.00;95380.00;2390593;56;26602;-55
2021/08/31 07:04:21;;;;;;;6.40;4.00;;;13.40;99.90;;;13.91;100.00;95381.00;2186284;55;26807;-55
2021/08/31 07:10:06;;;;;;;7.93;4.60;;;13.60;99.90;;;14.31;100.00;95376.00;2387420;55;33988;-55
2021/08/31 07:15:50;;;;;;;4.82;4.32;;;13.70;99.90;;;14.43;100.00;95368.00;2339964;56;34731;-57
2021/08/31 07:18:36;;;;;;;4.93;4.00;;;13.90;99.90;;;14.52;100.00;95390.00;2146799;57;26744;-55
2021/08/31 07:21:23;;;;;;;5.67;4.47;;;13.90;99.90;;;14.40;100.00;95389.00;2162740;56;27342;-55
2021/08/31 07:24:09;;;;;;;4.15;3.75;;;13.90;99.90;;;14.42;100.00;95387.00;2163830;56;27477;-56
2021/08/31 07:26:56;;;;;;;5.45;4.47;;;14.00;99.90;;;14.67;100.00;95390.00;2184801;56;26750;-56
2021/08/31 07:29:42;;;;;;;4.22;3.78;;;14.20;99.90;;;14.83;100.00;95393.00;2407477;56;26725;-55
2021/08/31 07:35:25;;;;;;;5.20;4.03;;;14.10;99.90;;;14.73;100.00;95392.00;2421762;55;33768;-55
2021/08/31 07:38:12;;;;;;;4.00;3.55;;;14.10;99.90;;;14.67;100.00;95400.00;2400376;56;26605;-55
2021/08/31 07:40:58;;;;;;;4.43;3.83;;;14.20;99.90;;;14.87;100.00;95402.00;2184797;56;26824;-58
2021/08/31 07:43:45;;;;;;;4.40;3.90;;;14.20;99.90;;;14.72;100.00;95407.00;2185809;56;27215;-55
2021/08/31 07:46:32;;;;;;;4.20;3.80;;;14.30;99.90;;;14.96;100.00;95411.00;2369493;56;27389;-55
2021/08/31 07:49:20;;;;;;;5.82;4.00;;;14.30;99.90;;;14.79;100.00;95410.00;2384318;56;27329;-55
2021/08/31 07:52:07;;;;;;;5.70;4.15;;;14.30;99.90;;;14.84;100.00;95410.00;2186201;57;26455;-55
2021/08/31 07:54:53;;;;;;;4.50;4.10;;;14.40;99.90;;;15.03;100.00;95414.00;2403399;56;27344;-55
2021/08/31 07:57:40;;;;;;;4.72;4.25;;;14.40;99.90;;;14.86;100.00;95411.00;2183314;55;26671;-55
2021/08/31 08:00:27;;;;;;;6.32;3.83;;;14.50;99.90;;;15.12;100.00;95418.00;2144143;56;26814;-55
2021/08/31 08:03:13;;;;;;;4.30;3.90;;;14.70;99.90;;;15.38;100.00;95415.00;2159497;55;26741;-54
2021/08/31 08:08:57;;;;;;;4.03;3.60;;;15.00;99.90;;;15.69;100.00;95405.00;2503996;52;34529;-56
2021/08/31 08:11:43;;;;;;;3.90;3.50;;;15.00;99.90;;;15.59;100.00;95408.00;2268312;53;26871;-55
2021/08/31 08:14:30;;;;;;;5.57;3.33;;;15.20;99.90;;;15.79;100.00;95397.00;2503048;53;26968;-55
2021/08/31 08:17:16;;;;;;;3.72;3.35;;;15.50;99.90;;;16.22;100.00;95394.00;2268831;54;26558;-55
2021/08/31 08:20:04;;;;;;;3.67;3.08;;;16.20;99.90;;;17.06;100.00;95398.00;2505055;54;26253;-55
2021/08/31 08:22:50;;;;;;;4.60;3.03;;;16.80;99.90;;;17.95;100.00;95392.00;2243072;54;26750;-54
2021/08/31 08:25:37;;;;;;;3.35;2.90;;;17.10;99.90;;;18.04;100.00;95398.00;2240299;54;26740;-56
2021/08/31 08:28:25;;;;;;;2.90;2.60;;;17.10;99.90;;;17.82;100.00;95395.00;2472836;54;26648;-55
2021/08/31 08:31:11;;;;;;;2.80;2.60;;;16.70;99.90;;;17.05;100.00;95406.00;2241865;54;26657;-55
2021/08/31 08:33:57;;;;;;;2.95;2.70;;;16.40;99.90;;;16.80;100.00;95403.00;2472942;54;26163;-55
2021/08/31 08:36:44;;;;;;;2.90;2.60;;;16.10;99.90;;;16.75;100.00;95410.00;2243082;54;26971;-55
2021/08/31 08:39:31;;;;;;;3.60;2.87;;;15.90;99.90;;;16.30;100.00;95413.00;2470826;54;27199;-55
2021/08/31 08:42:17;;;;;;;2.90;2.60;;;15.70;99.90;;;16.05;100.00;95416.00;2242694;54;26792;-55
2021/08/31 08:48:03;;;;;;;2.97;2.65;;;15.20;99.90;;;15.66;100.00;95408.00;2371386;55;34444;-55
2021/08/31 08:50:53;;;;;;;3.35;3.05;;;15.00;99.90;;;15.55;100.00;95420.00;2175874;56;26623;-55
2021/08/31 08:53:40;;;;;;;6.15;3.58;;;14.90;99.90;;;15.34;100.00;95427.00;2402501;56;26122;-55
2021/08/31 08:56:27;;;;;;;5.47;4.03;;;14.80;99.90;;;15.27;100.00;95429.00;2185468;57;27082;-54
2021/08/31 08:59:14;;;;;;;4.78;3.90;;;14.70;99.90;;;15.12;100.00;95435.00;2185281;57;26785;-55
2021/08/31 09:02:00;;;;;;;6.20;5.60;;;14.50;99.90;;;14.93;100.00;95430.00;2403151;56;26738;-54
2021/08/31 09:07:44;;;;;;;5.95;5.35;;;14.50;99.90;;;15.19;100.00;95440.00;2395901;55;34607;-55
2021/08/31 09:10:31;;;;;;;5.53;5.03;;;14.70;99.90;;;15.25;100.00;95453.00;2378807;56;27358;-55
2021/08/31 09:13:21;;;;;;;5.78;5.28;;;15.00;99.90;;;15.58;100.00;95453.00;2140678;57;26994;-55
2021/08/31 09:22:28;;;;;;;7.57;6.78;;;15.50;99.90;;;16.32;100.00;95435.00;2447114;53;33899;-55
2021/08/31 09:25:15;;;;;;;6.75;6.10;;;15.60;99.90;;;16.30;100.00;95447.00;2218124;54;27540;-55
2021/08/31 09:28:02;;;;;;;6.00;5.40;;;15.50;99.90;;;16.12;100.00;95446.00;2475388;54;27120;-55
2021/08/31 09:31:00;;;;;;;5.93;5.28;;;15.60;99.90;;;16.26;100.00;95442.00;2245305;53;26813;-56
2021/08/31 09:36:45;;;;;;;8.27;7.47;;;15.80;99.90;;;16.73;100.00;95430.00;2441245;53;34843;-55
2021/08/31 09:39:31;;;;;;;7.55;6.85;;;16.30;99.90;;;17.06;100.00;95447.00;2210241;55;27040;-55
2021/08/31 09:42:17;;;;;;;5.65;5.15;;;17.00;99.90;;;18.25;100.00;95440.00;2460523;54;26098;-56
2021/08/31 09:48:02;;;;;;;5.05;4.55;;;17.80;99.90;;;18.48;100.00;95427.00;2395349;55;34519;-55
2021/08/31 09:53:47;;;;;;;5.30;4.80;;;17.20;99.90;;;17.82;100.00;95430.00;2377498;55;34245;-55
2021/08/31 09:56:34;;;;;;;4.55;4.15;;;17.10;99.90;;;17.57;100.00;95441.00;2140396;58;26758;-55
2021/08/31 10:02:19;;;;;;;6.68;4.28;;;17.10;99.90;;;17.81;100.00;95439.00;2431397;54;34465;-56
2021/08/31 10:08:07;;;;;;;4.57;4.18;;;17.70;99.90;;;19.01;100.00;95443.00;2413504;54;34402;-55
2021/08/31 10:10:55;;;;;;;4.32;3.92;;;18.00;99.90;;;18.85;100.00;95442.00;2178614;56;26633;-55
2021/08/31 10:13:43;;;;;;;4.50;4.10;;;18.40;99.90;;;19.23;100.00;95438.00;2402482;55;26699;-55
2021/08/31 10:16:31;;;;;;;4.28;3.70;;;18.70;99.90;;;19.67;100.00;95438.00;2185407;55;27398;-55
2021/08/31 10:19:18;;;;;;;3.87;3.58;;;19.60;99.90;;;20.62;100.00;95445.00;2433358;55;27446;-55
2021/08/31 10:22:05;;;;;;;4.30;3.90;;;22.00;99.90;;;23.28;100.00;95441.00;2209337;55;26876;-56
2021/08/31 10:24:53;;;;;;;3.62;3.33;;;23.20;99.90;;;24.40;100.00;95437.00;2430925;55;26810;-56
2021/08/31 10:27:41;;;;;;;4.30;3.90;;;21.70;99.90;;;22.59;100.00;95436.00;2210235;55;26613;-58
2021/08/31 10:30:33;;;;;;;5.72;3.83;;;20.60;99.90;;;21.22;100.00;95443.00;2431465;55;27068;-55
2021/08/31 10:33:36;;;;;;;4.35;3.95;;;19.70;99.90;;;19.97;100.00;95452.00;2209404;55;26722;-55
2021/08/31 10:36:36;;;;;;;4.37;3.92;;;19.00;99.90;;;19.15;100.00;95442.00;2197448;55;26719;-55
2021/08/31 10:39:43;;;;;;;5.20;3.92;;;18.70;99.90;;;19.31;100.00;95447.00;2197131;55;26628;-54
2021/08/31 10:42:41;;;;;;;3.95;3.58;;;18.80;99.90;;;19.55;100.00;95445.00;2197830;55;26770;-55
2021/08/31 10:45:32;;;;;;;4.32;3.92;;;18.90;99.90;;;19.83;100.00;95456.00;2419629;55;26855;-55
2021/08/31 10:48:36;;;;;;;3.92;3.60;;;19.10;99.90;;;20.32;100.00;95456.00;2203942;55;27509;-56
2021/08/31 10:51:22;;;;;;;4.93;3.65;;;19.70;99.90;;;21.00;100.00;95450.00;2222564;55;27490;-56
2021/08/31 10:57:44;;;;;;;3.87;3.55;;;19.50;99.90;;;23.35;100.00;95439.00;2421217;55;34630;-55
2021/08/31 11:00:52;;;;;;;3.75;3.40;;;23.30;99.90;;;26.46;100.00;95447.00;2208296;56;26810;-55
2021/08/31 11:06:37;;;;;;;3.40;3.10;;;22.60;99.90;;;23.21;100.00;95443.00;2399215;55;34119;-57
2021/08/31 11:09:25;;;;;;;4.22;3.12;;;21.70;99.90;;;22.47;100.00;95439.00;2164553;57;26860;-55
2021/08/31 11:15:18;;;;;;;3.70;3.40;;;20.70;99.90;;;20.51;100.00;95448.00;2444608;53;34139;-54
2021/08/31 11:18:09;;;;;;;4.15;3.47;;;19.50;99.90;;;20.05;100.00;95465.00;2207577;55;26241;-55
2021/08/31 11:20:56;;;;;;;4.55;3.35;;;18.90;99.90;;;19.51;100.00;95472.00;2239574;55;26652;-55
2021/08/31 11:23:42;;;;;;;4.68;2.97;;;18.30;99.90;;;18.44;100.00;95469.00;2240692;55;26689;-55
2021/08/31 11:29:25;;;;;;;4.55;3.50;;;16.80;99.90;;;17.10;100.00;95480.00;2463456;54;34876;-54
2021/08/31 11:32:12;;;;;;;4.15;3.75;;;16.40;99.90;;;16.68;100.00;95494.00;2220495;54;26580;-55
2021/08/31 11:35:05;;;;;;;3.87;3.58;;;16.10;99.90;;;16.38;100.00;95498.00;2241537;53;26803;-54
2021/08/31 11:37:52;;;;;;;4.20;3.80;;;16.10;99.90;;;16.71;100.00;95507.00;2236525;54;27061;-55
2021/08/31 11:40:39;;;;;;;5.12;3.80;;;16.10;99.90;;;16.73;100.00;95505.00;2242303;54;27223;-55
2021/08/31 11:46:31;;;;;;;4.32;3.80;;;16.10;99.90;;;16.65;100.00;95500.00;2409622;54;33594;-55
2021/08/31 11:49:21;;;;;;;5.68;4.68;;;16.00;99.90;;;16.55;100.00;95507.00;2181798;55;26763;-55
2021/08/31 11:52:11;;;;;;;4.68;4.28;;;15.90;99.90;;;16.59;100.00;95513.00;2420786;55;26712;-55
2021/08/31 11:54:58;;;;;;;4.72;4.03;;;16.10;99.90;;;16.83;100.00;95509.00;2421596;55;26854;-54
2021/08/31 11:57:44;;;;;;;5.15;3.87;;;16.40;99.90;;;17.16;100.00;95505.00;2176483;56;26615;-55
2021/08/31 12:00:45;;;;;;;4.82;4.20;;;16.50;99.90;;;17.19;100.00;95513.00;2178457;56;27365;-55
2021/08/31 12:03:32;;;;;;;3.50;3.20;;;16.70;99.90;;;17.46;100.00;95511.00;2176659;56;27439;-54
2021/08/31 12:06:18;;;;;;;3.95;3.55;;;17.30;99.90;;;18.26;100.00;95506.00;2390618;55;27386;-55
2021/08/31 12:09:05;;;;;;;4.03;3.20;;;18.20;99.90;;;19.21;100.00;95504.00;2173153;56;26831;-56
2021/08/31 12:11:51;;;;;;;4.30;3.00;;;19.10;99.90;;;20.14;100.00;95506.00;2388947;55;26659;-55
2021/08/31 12:14:41;;;;;;;3.20;2.90;;;19.80;99.90;;;20.84;100.00;95510.00;2175479;56;27176;-55
2021/08/31 12:17:31;;;;;;;3.22;2.92;;;19.60;99.90;;;20.38;100.00;95507.00;2391578;55;26626;-56
2021/08/31 12:23:14;;;;;;;3.45;3.05;;;19.30;99.90;;;20.23;100.00;95496.00;2376222;55;35063;-55
2021/08/31 12:29:04;;;;;;;3.58;2.72;;;18.20;99.90;;;18.18;100.00;95508.00;2355796;56;34504;-55
2021/08/31 12:32:09;;;;;;;3.47;3.17;;;17.40;99.90;;;17.52;100.00;95518.00;2158715;57;26719;-54
2021/08/31 12:34:56;;;;;;;2.90;2.62;;;17.20;99.90;;;17.69;100.00;95517.00;2159705;57;26684;-55
2021/08/31 12:37:42;;;;;;;2.90;2.70;;;17.30;99.90;;;17.95;100.00;95519.00;2365644;56;27163;-55
2021/08/31 12:40:29;;;;;;;3.20;2.90;;;17.60;99.90;;;18.26;100.00;95508.00;2146524;56;26870;-55
2021/08/31 12:43:16;;;;;;;3.60;3.30;;;17.80;99.90;;;18.50;100.00;95512.00;2329630;56;27596;-55
2021/08/31 12:46:03;;;;;;;4.43;3.10;;;18.10;99.90;;;18.80;100.00;95506.00;2124333;56;26737;-55
2021/08/31 12:48:59;;;;;;;3.50;3.20;;;18.10;99.90;;;18.55;100.00;95507.00;2344038;56;26741;-55
2021/08/31 12:51:48;;;;;;;3.33;3.03;;;18.20;99.90;;;18.94;100.00;95509.00;2374275;56;27153;-55
2021/08/31 12:54:35;;;;;;;3.12;2.58;;;18.30;99.90;;;18.93;100.00;95516.00;2163997;57;26919;-55
2021/08/31 12:57:25;;;;;;;3.37;2.97;;;17.90;99.90;;;18.33;100.00;95515.00;2169755;57;26880;-55
2021/08/31 13:03:30;;;;;;;3.08;2.42;;;18.00;99.90;;;18.79;100.00;95501.00;2339142;57;33908;-54
2021/08/31 13:09:28;;;;;;;3.45;2.53;;;18.10;99.90;;;18.73;100.00;95507.00;2393215;55;33932;-55
2021/08/31 13:12:18;;;;;;;4.72;2.37;;;18.30;99.90;;;18.93;100.00;95510.00;2139557;56;26723;-54
2021/08/31 13:15:06;;;;;;;2.83;2.35;;;19.30;99.90;;;20.13;100.00;95507.00;2141673;56;26716;-55
2021/08/31 13:17:53;;;;;;;3.40;2.30;;;20.00;99.90;;;20.57;100.00;95498.00;2137037;56;26664;-54
2021/08/31 13:20:39;;;;;;;3.80;2.10;;;20.50;99.90;;;21.01;100.00;95508.00;2349239;56;26875;-55
2021/08/31 13:23:26;;;;;;;2.53;2.33;;;20.50;99.90;;;20.84;100.00;95507.00;2122504;56;26940;-55
2021/08/31 13:26:13;;;;;;;2.87;2.12;;;20.30;99.90;;;20.83;100.00;95500.00;2333443;56;26940;-54
2021/08/31 13:29:00;;;;;;;3.22;2.55;;;19.90;99.90;;;20.11;100.00;95491.00;2125666;56;26794;-54
2021/08/31 13:34:43;;;;;;;3.55;2.08;;;19.90;99.90;;;20.68;100.00;95496.00;2408035;54;34086;-55
2021/08/31 13:37:30;;;;;;;5.40;2.25;;;20.00;99.90;;;20.52;100.00;95499.00;2134821;56;26812;-55
2021/08/31 13:40:16;;;;;;;2.40;2.17;;;20.10;99.90;;;20.72;100.00;95493.00;2168923;56;26942;-55
2021/08/31 13:43:03;;;;;;;2.83;2.00;;;20.20;99.90;;;20.72;100.00;95499.00;2397835;55;26647;-55
2021/08/31 13:45:49;;;;;;;2.40;2.20;;;20.00;99.90;;;20.68;100.00;95500.00;2191056;56;26124;-55
2021/08/31 13:51:32;;;;;;;2.20;2.00;;;20.10;99.90;;;20.09;100.00;95499.00;2365241;55;34270;-55
2021/08/31 13:54:18;;;;;;;2.20;2.00;;;19.50;99.90;;;20.19;100.00;95514.00;2151821;57;26737;-55
2021/08/31 14:00:03;;;;;;;2.97;2.08;;;18.90;99.90;;;19.63;100.00;95503.00;2353219;56;33347;-55
2021/08/31 14:05:46;;;;;;;2.58;2.25;;;18.70;99.90;;;19.47;100.00;95512.00;2373559;55;33796;-54
2021/08/31 14:08:32;;;;;;;2.85;2.50;;;18.50;99.90;;;18.95;100.00;95514.00;2166131;56;26677;-55
2021/08/31 14:14:16;;;;;;;2.72;2.35;;;17.80;99.90;;;18.28;100.00;95514.00;2411116;55;34551;-55
2021/08/31 14:17:03;;;;;;;2.62;2.40;;;17.80;99.90;;;18.43;100.00;95518.00;2422084;55;26873;-55